Time;durP1;ratioP1;P1;durP2;ratioP2;P2;SDS_P1;SDS_P2;PMS_P1;PMS_P2;Temp;Humidity;BMP_temperature;BMP_pressure;BME280_temperature;BME280_humidity;BME280_pressure;Samples;Min_cycle;Max_cycle;Signal;HPM_P1;HPM_P2
2022/04/07 00:02:24;;;;;;;9.63;5.45;;;;;;;11.95;51.55;98396.53;4486253;32;34246;-78
2022/04/07 00:04:52;;;;;;;9.20;5.45;;;;;;;11.80;51.92;98391.59;4459082;32;33830;-79
2022/04/07 00:07:19;;;;;;;10.95;5.00;;;;;;;11.79;52.22;98387.19;4472192;32;34350;-78
2022/04/07 00:09:47;;;;;;;9.73;6.12;;;;;;;11.73;52.44;98384.56;4459031;32;33128;-78
2022/04/07 00:12:15;;;;;;;16.87;8.70;;;;;;;11.74;52.28;98386.22;4446308;32;33926;-78
2022/04/07 00:14:42;;;;;;;28.67;14.80;;;;;;;11.73;51.99;98379.06;4445701;32;32546;-78
2022/04/07 00:17:12;;;;;;;106.85;54.95;;;;;;;11.69;52.08;98383.44;4471631;32;34088;-77
2022/04/07 00:19:40;;;;;;;98.47;50.65;;;;;;;11.44;52.61;98372.81;4472032;32;33664;-77
2022/04/07 00:22:08;;;;;;;46.60;25.23;;;;;;;11.68;52.14;98370.78;4459152;32;32847;-78
2022/04/07 00:24:35;;;;;;;26.08;15.27;;;;;;;11.68;52.19;98368.03;4458705;32;32671;-79
2022/04/07 00:27:03;;;;;;;22.23;13.02;;;;;;;11.64;52.25;98370.44;4472116;32;33212;-77
2022/04/07 00:29:31;;;;;;;34.83;17.98;;;;;;;11.65;52.25;98365.75;4459081;32;33461;-78
2022/04/07 00:32:05;;;;;;;32.90;17.73;;;;;;;11.47;52.64;98351.16;4446276;32;32990;-78
2022/04/07 00:34:36;;;;;;;29.60;15.65;;;;;;;11.37;52.77;98356.47;4459996;32;33828;-78
2022/04/07 00:37:03;;;;;;;14.00;7.72;;;;;;;11.34;53.10;98351.47;4446393;32;32841;-78
2022/04/07 00:39:31;;;;;;;17.62;8.82;;;;;;;11.22;53.53;98347.94;4485822;32;34430;-78
2022/04/07 00:41:59;;;;;;;13.75;7.32;;;;;;;11.33;53.16;98341.56;4459071;32;34718;-77
2022/04/07 00:44:28;;;;;;;14.20;8.45;;;;;;;11.38;53.04;98344.41;4471037;32;33661;-78
2022/04/07 00:46:57;;;;;;;16.40;9.30;;;;;;;11.35;53.06;98333.91;4472147;32;33014;-78
2022/04/07 00:49:25;;;;;;;18.75;9.98;;;;;;;11.42;52.78;98337.34;4471852;32;33644;-78
2022/04/07 00:51:54;;;;;;;13.57;7.10;;;;;;;11.38;52.92;98336.16;4471891;32;35207;-78
2022/04/07 00:54:21;;;;;;;11.93;6.80;;;;;;;11.29;53.08;98340.41;4459331;32;34088;-78
2022/04/07 00:56:49;;;;;;;11.32;6.53;;;;;;;11.38;52.99;98330.69;4472227;32;33822;-78
2022/04/07 00:59:19;;;;;;;10.07;5.65;;;;;;;11.34;52.99;98329.50;4456074;32;34387;-78
2022/04/07 01:01:46;;;;;;;11.82;6.87;;;;;;;11.19;53.30;98329.22;4469374;32;34572;-78
2022/04/07 01:04:16;;;;;;;10.85;4.90;;;;;;;11.32;52.90;98325.34;4456220;32;34563;-78
2022/04/07 01:06:44;;;;;;;9.82;5.70;;;;;;;11.05;53.55;98322.38;4456168;32;33297;-77
2022/04/07 01:09:11;;;;;;;11.57;6.20;;;;;;;11.12;53.40;98321.12;4468968;32;33582;-78
2022/04/07 01:11:40;;;;;;;12.02;6.00;;;;;;;11.09;53.50;98324.37;4456520;32;34328;-78
2022/04/07 01:14:07;;;;;;;10.63;5.85;;;;;;;11.14;53.43;98320.88;4455942;32;32742;-78
2022/04/07 01:16:36;;;;;;;11.57;7.60;;;;;;;11.17;53.39;98317.66;4456097;32;31695;-78
2022/04/07 01:19:04;;;;;;;15.85;11.98;;;;;;;11.11;53.60;98313.12;4456288;32;33575;-78
2022/04/07 01:21:34;;;;;;;13.85;9.10;;;;;;;11.12;53.45;98317.53;4468554;32;34625;-77
2022/04/07 01:24:09;;;;;;;12.68;8.00;;;;;;;11.10;53.50;98319.72;4456056;32;34112;-78
2022/04/07 01:26:39;;;;;;;14.90;8.43;;;;;;;11.02;53.67;98312.72;4467803;32;33275;-78
2022/04/07 01:29:09;;;;;;;13.70;8.35;;;;;;;11.06;53.50;98310.28;4456008;32;32264;-78
2022/04/07 01:31:38;;;;;;;11.30;7.60;;;;;;;11.13;53.41;98308.22;4456336;32;35235;-78
2022/04/07 01:34:11;;;;;;;11.43;7.12;;;;;;;11.16;53.46;98310.50;4455873;32;32583;-77
2022/04/07 01:36:45;;;;;;;10.95;6.43;;;;;;;10.85;54.00;98298.94;4456086;32;31633;-78
2022/04/07 01:39:14;;;;;;;9.90;5.70;;;;;;;11.02;53.68;98296.25;4455984;32;32350;-78
2022/04/07 01:41:43;;;;;;;11.98;5.60;;;;;;;10.84;54.46;98294.53;4468809;32;34413;-78
2022/04/07 01:44:12;;;;;;;10.32;5.95;;;;;;;10.86;54.56;98292.38;4455873;32;34009;-78
2022/04/07 01:46:39;;;;;;;11.93;6.12;;;;;;;11.03;54.23;98291.59;4468688;32;34191;-78
2022/04/07 01:49:07;;;;;;;10.63;6.40;;;;;;;11.09;53.88;98288.69;4468865;32;34535;-78
2022/04/07 01:51:36;;;;;;;10.50;5.95;;;;;;;11.02;53.98;98290.75;4443097;32;33023;-78
2022/04/07 01:54:11;;;;;;;10.55;5.78;;;;;;;10.94;53.97;98290.31;4455751;32;32427;-78
2022/04/07 01:56:40;;;;;;;10.02;5.80;;;;;;;11.04;53.72;98287.78;4456441;32;32626;-78
2022/04/07 01:59:08;;;;;;;11.65;5.68;;;;;;;11.08;53.56;98283.44;4468206;32;33690;-78
2022/04/07 02:01:38;;;;;;;11.15;5.70;;;;;;;11.06;53.62;98283.69;4455663;32;33797;-78
2022/04/07 02:04:06;;;;;;;10.90;4.78;;;;;;;11.05;53.71;98267.47;4455723;32;33295;-78
2022/04/07 02:06:34;;;;;;;8.48;4.87;;;;;;;11.02;53.71;98263.31;4468441;32;34111;-78
2022/04/07 02:09:02;;;;;;;12.27;6.53;;;;;;;10.93;54.14;98263.97;4455709;32;32261;-78
2022/04/07 02:11:32;;;;;;;10.82;5.50;;;;;;;10.86;54.32;98259.44;4455577;32;34558;-78
2022/04/07 02:13:59;;;;;;;19.65;9.27;;;;;;;11.02;53.83;98251.50;4468267;32;33680;-77
2022/04/07 02:16:30;;;;;;;13.40;6.78;;;;;;;10.81;54.42;98242.88;4468280;32;34228;-78
2022/04/07 02:18:58;;;;;;;21.67;10.00;;;;;;;10.78;54.84;98245.28;4455463;32;33215;-78
2022/04/07 02:21:25;;;;;;;54.28;28.48;;;;;;;10.89;54.49;98233.44;4468139;32;35396;-78
2022/04/07 02:23:54;;;;;;;58.53;28.80;;;;;;;10.94;54.35;98216.22;4455451;32;34865;-78
2022/04/07 02:26:22;;;;;;;32.63;15.45;;;;;;;10.94;54.29;98211.56;4468203;32;33514;-77
2022/04/07 02:28:49;;;;;;;21.70;11.55;;;;;;;11.07;54.00;98204.88;4468093;32;33626;-78
2022/04/07 02:31:20;;;;;;;22.55;10.95;;;;;;;10.86;54.68;98206.47;4468041;32;34384;-78
2022/04/07 02:33:47;;;;;;;22.37;11.15;;;;;;;10.89;54.67;98211.47;4468016;32;33348;-77
2022/04/07 02:36:17;;;;;;;27.95;11.70;;;;;;;10.88;54.75;98210.63;4468073;32;33659;-78
2022/04/07 02:38:45;;;;;;;21.50;10.75;;;;;;;10.79;54.92;98209.37;4470832;32;33552;-77
2022/04/07 02:41:13;;;;;;;17.58;8.90;;;;;;;10.86;54.78;98201.81;4469942;32;34264;-78
2022/04/07 02:43:41;;;;;;;21.83;10.27;;;;;;;10.80;54.99;98201.97;4470121;32;33801;-78
2022/04/07 02:46:10;;;;;;;21.92;10.65;;;;;;;10.74;55.19;98195.56;4457358;32;34136;-78
2022/04/07 02:48:38;;;;;;;17.12;8.27;;;;;;;10.79;54.97;98184.66;4457425;32;32401;-78
2022/04/07 02:51:07;;;;;;;17.20;8.15;;;;;;;10.89;54.69;98184.84;4469881;32;35232;-78
2022/04/07 02:53:35;;;;;;;18.35;7.53;;;;;;;10.93;54.57;98173.38;4457141;32;32526;-78
2022/04/07 02:56:02;;;;;;;14.43;6.90;;;;;;;10.82;55.06;98164.13;4456780;32;31771;-78
2022/04/07 02:58:30;;;;;;;11.43;6.87;;;;;;;10.75;55.21;98158.81;4470192;32;33634;-78
2022/04/07 03:00:58;;;;;;;12.45;6.78;;;;;;;10.94;54.84;98162.16;4469881;32;35949;-78
2022/04/07 03:03:25;;;;;;;12.55;6.55;;;;;;;10.77;55.19;98148.41;4470094;32;34072;-78
2022/04/07 03:05:53;;;;;;;11.43;6.50;;;;;;;10.86;54.86;98146.94;4469781;32;33315;-78
2022/04/07 03:08:21;;;;;;;13.50;6.40;;;;;;;10.92;54.64;98147.00;4470170;32;34461;-78
2022/04/07 03:10:49;;;;;;;11.70;6.47;;;;;;;10.81;54.92;98135.03;4470863;32;35550;-77
2022/04/07 03:13:16;;;;;;;12.32;6.12;;;;;;;10.87;55.00;98145.00;4444176;32;32348;-77
2022/04/07 03:15:44;;;;;;;14.00;6.40;;;;;;;10.92;54.84;98147.00;4444463;32;33547;-78
2022/04/07 03:18:12;;;;;;;15.95;7.78;;;;;;;10.94;54.79;98147.59;4456751;32;33578;-78
2022/04/07 03:20:40;;;;;;;15.88;6.05;;;;;;;10.93;54.81;98154.16;4469577;32;35343;-78
2022/04/07 03:23:08;;;;;;;12.60;6.57;;;;;;;10.89;54.88;98143.69;4469691;32;33971;-78
2022/04/07 03:25:36;;;;;;;15.48;7.53;;;;;;;10.92;54.94;98152.50;4469594;32;33543;-77
2022/04/07 03:28:06;;;;;;;15.98;10.50;;;;;;;10.89;54.98;98151.91;4457020;32;32440;-78
2022/04/07 03:30:33;;;;;;;25.12;17.83;;;;;;;10.92;54.88;98158.00;4469704;32;35183;-78
2022/04/07 03:33:02;;;;;;;19.90;11.70;;;;;;;10.92;54.96;98155.25;4456786;32;34539;-78
2022/04/07 03:35:29;;;;;;;38.17;22.70;;;;;;;10.77;55.38;98153.06;4456851;32;31989;-78
2022/04/07 03:37:57;;;;;;;64.28;37.97;;;;;;;10.89;54.90;98137.38;4470021;32;34376;-78
2022/04/07 03:40:28;;;;;;;82.12;44.42;;;;;;;10.79;55.11;98131.69;4469571;32;34414;-78
2022/04/07 03:42:55;;;;;;;80.85;40.38;;;;;;;10.93;54.71;98121.22;4456898;32;33977;-78
2022/04/07 03:45:23;;;;;;;65.15;29.15;;;;;;;10.93;54.75;98113.00;4456738;32;33299;-79
2022/04/07 03:47:51;;;;;;;31.20;13.95;;;;;;;10.87;54.95;98115.66;4469791;32;34557;-78
2022/04/07 03:50:18;;;;;;;25.58;12.00;;;;;;;10.64;55.59;98124.03;4456157;32;33030;-78
2022/04/07 03:52:46;;;;;;;82.60;37.90;;;;;;;10.72;55.33;98115.41;4469460;32;33882;-78
2022/04/07 03:55:14;;;;;;;61.75;30.70;;;;;;;10.83;54.95;98110.91;4456513;32;32922;-77
2022/04/07 03:57:41;;;;;;;55.10;26.77;;;;;;;10.75;55.28;98108.59;4469814;32;34406;-78
2022/04/07 04:00:09;;;;;;;41.50;20.10;;;;;;;10.73;55.32;98099.75;4443879;32;34144;-77
2022/04/07 04:02:38;;;;;;;27.13;15.25;;;;;;;10.75;55.41;98098.44;4469443;32;33854;-76
2022/04/07 04:05:06;;;;;;;26.67;14.80;;;;;;;10.65;55.60;98090.03;4456743;32;33300;-74
2022/04/07 04:07:34;;;;;;;30.73;15.77;;;;;;;10.54;55.75;98091.75;4456592;32;32236;-74
2022/04/07 04:10:02;;;;;;;27.27;12.57;;;;;;;10.62;55.73;98092.44;4469241;32;35316;-73
2022/04/07 04:12:30;;;;;;;28.08;13.55;;;;;;;10.81;55.13;98091.94;4469938;32;34525;-73
2022/04/07 04:14:58;;;;;;;26.80;12.65;;;;;;;10.85;55.09;98093.13;4470226;32;34145;-73
2022/04/07 04:17:29;;;;;;;20.90;11.27;;;;;;;10.92;55.12;98098.44;4470303;32;33744;-73
2022/04/07 04:20:00;;;;;;;20.92;10.68;;;;;;;10.88;55.27;98086.31;4469103;32;34430;-73
2022/04/07 04:22:28;;;;;;;22.80;11.52;;;;;;;10.92;55.02;98095.69;4469353;32;34452;-73
2022/04/07 04:24:56;;;;;;;24.45;10.23;;;;;;;10.91;55.16;98106.94;4470479;32;34177;-73
2022/04/07 04:27:23;;;;;;;19.62;10.18;;;;;;;10.90;55.21;98100.59;4469291;32;34566;-73
2022/04/07 04:29:51;;;;;;;22.48;10.45;;;;;;;10.85;55.31;98093.13;4469139;32;32829;-73
2022/04/07 04:32:18;;;;;;;17.92;8.63;;;;;;;10.76;55.56;98091.88;4456383;32;33452;-73
2022/04/07 04:34:49;;;;;;;16.80;7.32;;;;;;;10.90;61.67;98089.63;4470601;32;33191;-73
2022/04/07 04:37:16;;;;;;;17.75;7.43;;;;;;;11.01;57.35;98090.63;4469317;32;32664;-73
2022/04/07 04:39:44;;;;;;;17.92;8.80;;;;;;;11.08;56.90;98091.25;4469534;32;34532;-73
2022/04/07 04:42:13;;;;;;;19.27;6.82;;;;;;;10.99;56.09;98081.81;4470704;32;34080;-73
2022/04/07 04:44:40;;;;;;;16.77;6.20;;;;;;;10.98;55.70;98080.97;4469521;32;33475;-73
2022/04/07 04:47:08;;;;;;;14.95;6.57;;;;;;;10.84;56.17;98082.38;4469112;32;33729;-73
2022/04/07 04:49:40;;;;;;;16.85;8.25;;;;;;;10.90;55.83;98084.12;4469283;32;32962;-73
2022/04/07 04:52:11;;;;;;;24.02;11.32;;;;;;;10.87;56.05;98090.97;4469157;32;34111;-73
2022/04/07 04:54:41;;;;;;;15.13;8.00;;;;;;;11.00;55.71;98097.19;4468803;32;33209;-73
2022/04/07 04:57:09;;;;;;;19.62;8.02;;;;;;;11.45;67.07;98097.84;4470274;32;34550;-75
2022/04/07 04:59:37;;;;;;;12.98;7.30;;;;;;;11.40;58.79;98094.19;4456104;32;34523;-73
2022/04/07 05:02:05;;;;;;;9.93;4.90;;;;;;;11.46;56.88;98096.75;4454299;32;33926;-75
2022/04/07 05:04:36;;;;;;;13.55;5.10;;;;;;;11.35;55.59;98103.19;4483266;32;31596;-73
2022/04/07 05:07:07;;;;;;;11.35;5.30;;;;;;;11.24;55.65;98095.87;4480676;32;33190;-73
2022/04/07 05:09:38;;;;;;;11.63;5.43;;;;;;;11.38;54.83;98107.34;4468683;32;34396;-73
2022/04/07 05:12:11;;;;;;;11.02;6.32;;;;;;;11.24;55.07;98101.38;4470042;32;34659;-74
2022/04/07 05:14:38;;;;;;;12.55;7.78;;;;;;;11.23;55.09;98088.72;4468969;32;33329;-73
2022/04/07 05:17:07;;;;;;;16.15;7.30;;;;;;;11.18;55.53;98086.75;4468801;32;32244;-73
2022/04/07 05:19:38;;;;;;;14.95;7.55;;;;;;;11.20;55.76;98097.47;4469780;32;34585;-73
2022/04/07 05:22:08;;;;;;;12.05;7.30;;;;;;;11.40;55.35;98083.22;4467462;32;34503;-73
2022/04/07 05:24:36;;;;;;;23.60;11.27;;;;;;;11.43;55.45;98089.03;4455106;32;32907;-73
2022/04/07 05:27:06;;;;;;;17.00;9.27;;;;;;;11.44;55.70;98093.44;4468446;32;33703;-73
2022/04/07 05:29:34;;;;;;;23.95;13.80;;;;;;;11.50;55.88;98105.34;4455172;32;32774;-73
2022/04/07 05:32:07;;;;;;;40.20;27.02;;;;;;;11.49;56.04;98110.00;4470116;32;33929;-73
2022/04/07 05:34:39;;;;;;;26.67;14.95;;;;;;;11.61;56.03;98112.63;4468781;32;33319;-73
2022/04/07 05:37:06;;;;;;;18.27;8.98;;;;;;;11.70;56.02;98121.28;4468557;32;33982;-74
2022/04/07 05:39:34;;;;;;;13.20;7.72;;;;;;;11.65;56.72;98118.44;4468628;32;34206;-73
2022/04/07 05:42:05;;;;;;;13.98;7.97;;;;;;;11.75;56.48;98113.06;4468675;32;32789;-74
2022/04/07 05:44:33;;;;;;;16.00;7.47;;;;;;;11.82;56.54;98125.56;4468333;32;34191;-73
2022/04/07 05:47:01;;;;;;;15.55;7.45;;;;;;;11.59;57.38;98130.47;4456076;32;33723;-73
2022/04/07 05:49:28;;;;;;;14.65;6.32;;;;;;;11.80;56.83;98138.72;4469723;32;34603;-74
2022/04/07 05:52:00;;;;;;;9.35;5.07;;;;;;;11.82;56.55;98139.31;4455483;32;32507;-82
2022/04/07 05:54:28;;;;;;;9.13;4.90;;;;;;;12.07;55.39;98136.06;4455649;32;31958;-73
2022/04/07 05:56:56;;;;;;;9.38;5.12;;;;;;;12.03;55.04;98145.91;4455583;32;33884;-73
2022/04/07 05:59:26;;;;;;;8.38;4.97;;;;;;;12.34;53.61;98146.28;4455569;32;33055;-75
2022/04/07 06:01:54;;;;;;;9.68;5.40;;;;;;;12.37;53.54;98145.72;4455489;32;34225;-73
2022/04/07 06:04:25;;;;;;;8.27;4.85;;;;;;;12.68;54.68;98150.47;4469655;32;33122;-73
2022/04/07 06:06:53;;;;;;;9.23;4.57;;;;;;;12.68;52.59;98149.63;4469580;32;34792;-74
2022/04/07 06:09:20;;;;;;;9.70;5.03;;;;;;;12.57;52.15;98153.38;4469531;32;35138;-74
2022/04/07 06:11:48;;;;;;;8.63;4.80;;;;;;;12.84;51.50;98145.94;4469656;32;33790;-73
2022/04/07 06:14:18;;;;;;;10.32;4.93;;;;;;;13.06;51.40;98154.94;4483341;32;31712;-73
2022/04/07 06:16:48;;;;;;;10.02;5.80;;;;;;;13.10;50.70;98142.28;4483989;32;34311;-73
2022/04/07 06:19:16;;;;;;;42.67;25.60;;;;;;;13.27;50.39;98149.63;4483814;32;34119;-73
2022/04/07 06:21:46;;;;;;;16.85;10.38;;;;;;;13.26;51.43;98156.22;4470995;32;34576;-73
2022/04/07 06:24:14;;;;;;;10.50;5.97;;;;;;;13.23;50.12;98165.84;4483728;32;32029;-73
2022/04/07 06:26:41;;;;;;;9.90;5.22;;;;;;;13.50;49.51;98163.84;4483804;32;32352;-73
2022/04/07 06:29:09;;;;;;;13.43;6.15;;;;;;;13.67;48.98;98171.94;4483820;32;34292;-73
2022/04/07 06:31:36;;;;;;;13.10;6.10;;;;;;;13.76;49.26;98170.34;4484895;32;33832;-73
2022/04/07 06:34:06;;;;;;;8.70;5.32;;;;;;;13.88;49.24;98175.62;4484893;32;34346;-73
2022/04/07 06:36:38;;;;;;;20.70;14.20;;;;;;;13.63;48.51;98175.50;4470959;32;32162;-74
2022/04/07 06:39:08;;;;;;;17.42;9.85;;;;;;;13.90;48.29;98173.44;4482877;32;32925;-73
2022/04/07 06:41:36;;;;;;;32.45;15.00;;;;;;;14.07;48.27;98184.28;4470255;32;34212;-73
2022/04/07 06:44:06;;;;;;;33.80;17.02;;;;;;;14.15;47.50;98187.37;4484962;32;34372;-73
2022/04/07 06:46:34;;;;;;;23.52;11.48;;;;;;;14.14;48.81;98185.72;4483671;32;33771;-73
2022/04/07 06:49:05;;;;;;;19.85;9.43;;;;;;;14.27;48.11;98189.09;4484640;32;34255;-73
2022/04/07 06:51:35;;;;;;;16.40;9.05;;;;;;;14.44;47.34;98184.19;4470972;32;34020;-74
2022/04/07 06:54:05;;;;;;;18.98;9.35;;;;;;;14.53;48.10;98190.84;4470746;32;33613;-74
2022/04/07 06:56:32;;;;;;;15.30;7.90;;;;;;;14.60;49.46;98188.66;4483365;32;33259;-74
2022/04/07 06:59:01;;;;;;;17.52;8.60;;;;;;;14.69;49.96;98183.44;4487227;31;34683;-74
2022/04/07 07:01:28;;;;;;;13.45;7.35;;;;;;;14.79;49.69;98183.47;4486250;31;34025;-74
2022/04/07 07:03:58;;;;;;;13.95;7.95;;;;;;;14.88;49.11;98181.00;4499970;31;33954;-74
2022/04/07 07:06:29;;;;;;;11.82;7.05;;;;;;;14.89;48.84;98185.44;4500090;31;34737;-74
2022/04/07 07:08:59;;;;;;;15.05;7.97;;;;;;;14.81;48.73;98184.03;4500290;31;34536;-74
2022/04/07 07:11:27;;;;;;;14.35;7.97;;;;;;;14.85;49.80;98187.91;4472667;31;33597;-73
2022/04/07 07:13:55;;;;;;;15.00;9.00;;;;;;;14.97;49.76;98193.13;4499994;31;33931;-74
2022/04/07 07:16:26;;;;;;;11.07;7.00;;;;;;;15.01;49.79;98194.25;4468341;32;33947;-74
2022/04/07 07:18:59;;;;;;;64.18;37.17;;;;;;;15.00;50.27;98196.19;4469929;32;34616;-74
2022/04/07 07:21:27;;;;;;;12.73;6.87;;;;;;;15.11;50.18;98186.81;4483724;32;34809;-74
2022/04/07 07:23:55;;;;;;;14.45;6.00;;;;;;;15.13;50.28;98186.53;4470215;32;33355;-74
2022/04/07 07:26:24;;;;;;;17.17;6.93;;;;;;;15.22;50.42;98181.28;4472253;32;32199;-73
2022/04/07 07:28:52;;;;;;;11.98;6.35;;;;;;;15.21;50.72;98190.69;4486597;32;34121;-73
2022/04/07 07:31:20;;;;;;;11.30;6.15;;;;;;;15.19;50.63;98190.12;4485400;32;32553;-73
2022/04/07 07:33:48;;;;;;;12.50;5.85;;;;;;;15.35;49.64;98184.34;4472538;32;34280;-74
2022/04/07 07:36:16;;;;;;;11.52;6.35;;;;;;;15.35;49.23;98192.63;4472395;32;33726;-73
2022/04/07 07:38:52;;;;;;;13.32;6.78;;;;;;;15.38;49.54;98186.56;4473652;32;35338;-73
2022/04/07 07:41:20;;;;;;;14.40;6.90;;;;;;;15.43;48.50;98191.25;4486486;32;33886;-74
2022/04/07 07:43:47;;;;;;;12.75;6.40;;;;;;;15.45;48.87;98186.28;4459309;32;32873;-73
2022/04/07 07:46:16;;;;;;;17.37;9.52;;;;;;;15.47;47.50;98186.81;4486374;32;33782;-73
2022/04/07 07:48:46;;;;;;;13.10;7.05;;;;;;;15.57;48.66;98183.25;4472493;32;35274;-74
2022/04/07 07:51:16;;;;;;;13.45;7.00;;;;;;;15.70;48.30;98182.66;4472405;32;34021;-73
2022/04/07 07:53:45;;;;;;;11.23;6.40;;;;;;;15.80;48.51;98188.19;4486555;32;34175;-74
2022/04/07 07:56:13;;;;;;;10.73;6.28;;;;;;;15.93;48.41;98195.06;4472234;32;33377;-73
2022/04/07 07:58:41;;;;;;;20.83;9.55;;;;;;;15.98;47.98;98195.88;4472203;31;34416;-74
2022/04/07 08:01:08;;;;;;;13.15;6.72;;;;;;;15.95;47.23;98199.22;4486390;32;34745;-74
2022/04/07 08:03:36;;;;;;;10.35;5.97;;;;;;;16.01;46.90;98203.63;4472138;32;33270;-74
2022/04/07 08:06:04;;;;;;;11.73;7.60;;;;;;;15.99;47.34;98196.72;4486394;32;34416;-74
2022/04/07 08:08:31;;;;;;;13.52;6.78;;;;;;;16.00;46.33;98196.44;4486395;32;34611;-74
2022/04/07 08:10:59;;;;;;;10.95;6.00;;;;;;;16.13;45.61;98201.38;4459094;32;32378;-74
2022/04/07 08:13:27;;;;;;;12.73;7.53;;;;;;;16.20;44.59;98200.25;4486167;32;32657;-74
2022/04/07 08:15:54;;;;;;;11.75;7.43;;;;;;;16.20;43.92;98194.72;4486469;32;33693;-74
2022/04/07 08:18:23;;;;;;;11.32;6.45;;;;;;;16.32;44.15;98200.75;4446357;32;33075;-74
2022/04/07 08:20:50;;;;;;;12.85;6.78;;;;;;;16.39;43.89;98192.97;4472057;32;32538;-74
2022/04/07 08:23:18;;;;;;;12.45;6.47;;;;;;;16.35;44.08;98187.16;4472205;32;34415;-74
2022/04/07 08:25:45;;;;;;;10.10;6.55;;;;;;;16.42;44.61;98195.16;4486196;32;34470;-73
2022/04/07 08:28:13;;;;;;;11.98;7.10;;;;;;;16.33;43.85;98203.22;4459427;32;35184;-73
2022/04/07 08:30:40;;;;;;;13.05;6.55;;;;;;;16.46;43.23;98201.81;4472145;32;34624;-74
2022/04/07 08:33:08;;;;;;;11.05;7.30;;;;;;;16.59;43.28;98206.72;4486076;32;32922;-74
2022/04/07 08:35:36;;;;;;;17.48;9.57;;;;;;;16.33;43.70;98205.16;4471870;32;33873;-73
2022/04/07 08:38:04;;;;;;;17.02;10.75;;;;;;;16.00;43.30;98213.03;4486451;32;34286;-73
2022/04/07 08:40:35;;;;;;;19.67;12.18;;;;;;;16.23;44.13;98211.59;4484977;32;32504;-74
2022/04/07 08:43:02;;;;;;;15.15;8.63;;;;;;;16.19;44.49;98201.38;4472100;32;34017;-74
2022/04/07 08:45:30;;;;;;;15.07;8.57;;;;;;;16.19;43.61;98202.19;4471959;32;33937;-74
2022/04/07 08:47:58;;;;;;;13.30;7.62;;;;;;;16.28;43.75;98200.47;4472060;32;35125;-73
2022/04/07 08:50:26;;;;;;;15.00;7.57;;;;;;;16.44;43.72;98204.03;4486075;32;34787;-74
2022/04/07 08:52:54;;;;;;;14.00;8.07;;;;;;;16.23;44.90;98205.22;4484870;32;33515;-73
2022/04/07 08:55:22;;;;;;;16.25;9.27;;;;;;;16.08;44.47;98195.88;4484816;32;34087;-73
2022/04/07 08:57:49;;;;;;;14.85;9.23;;;;;;;16.27;44.99;98200.75;4471903;32;34474;-74
2022/04/07 09:00:17;;;;;;;13.43;8.60;;;;;;;16.09;45.82;98192.00;4486008;32;33764;-74
2022/04/07 09:02:46;;;;;;;20.88;13.52;;;;;;;15.64;46.55;98197.59;4472221;32;34264;-74
2022/04/07 09:05:14;;;;;;;19.58;11.50;;;;;;;15.88;46.10;98198.69;4472154;32;33364;-73
2022/04/07 09:07:48;;;;;;;18.58;10.55;;;;;;;16.09;46.39;98194.75;4471804;32;34435;-73
2022/04/07 09:10:20;;;;;;;18.50;11.65;;;;;;;16.10;46.39;98190.06;4471735;32;32497;-74
2022/04/07 09:12:48;;;;;;;25.88;15.93;;;;;;;16.33;45.78;98177.50;4459075;32;32892;-73
2022/04/07 09:15:16;;;;;;;30.45;21.23;;;;;;;16.62;45.69;98183.19;4471677;32;33844;-73
2022/04/07 09:17:55;;;;;;;32.97;22.05;;;;;;;16.66;44.84;98185.13;4484715;32;33113;-73
2022/04/07 09:20:24;;;;;;;16.95;11.63;;;;;;;16.53;44.24;98179.34;4458903;32;33873;-73
2022/04/07 09:22:58;;;;;;;78.00;62.13;;;;;;;16.59;44.99;98180.97;4445891;32;31880;-73
2022/04/07 09:25:28;;;;;;;9.82;6.25;;;;;;;16.94;43.61;98168.88;4458822;32;33794;-74
2022/04/07 09:28:00;;;;;;;15.90;9.63;;;;;;;16.98;40.72;98178.25;4458807;32;34308;-74
2022/04/07 09:30:36;;;;;;;14.70;9.73;;;;;;;16.07;45.15;98185.06;4459206;32;32524;-74
2022/04/07 09:33:04;;;;;;;18.73;9.93;;;;;;;16.23;45.74;98172.03;4471574;32;34041;-73
2022/04/07 09:35:31;;;;;;;15.77;9.93;;;;;;;17.10;44.31;98173.19;4484489;32;33259;-73
2022/04/07 09:38:02;;;;;;;17.30;10.35;;;;;;;17.12;43.61;98182.88;4458803;32;34236;-73
2022/04/07 09:40:30;;;;;;;16.80;10.57;;;;;;;16.88;44.30;98178.34;4485584;32;33801;-73
2022/04/07 09:42:58;;;;;;;15.73;9.98;;;;;;;17.06;44.47;98172.09;4471597;32;33502;-73
2022/04/07 09:45:26;;;;;;;20.77;13.02;;;;;;;16.38;44.57;98164.44;4471789;32;33819;-73
2022/04/07 09:47:55;;;;;;;19.55;12.85;;;;;;;16.02;46.08;98165.72;4470159;32;32786;-73
2022/04/07 09:50:29;;;;;;;21.12;13.23;;;;;;;16.28;45.13;98164.50;4471719;32;34757;-73
2022/04/07 09:53:05;;;;;;;14.05;8.82;;;;;;;16.56;43.22;98162.97;4485413;32;34050;-74
2022/04/07 09:55:37;;;;;;;14.63;8.10;;;;;;;16.13;43.71;98157.09;4471591;32;34362;-73
2022/04/07 09:58:10;;;;;;;12.35;8.23;;;;;;;16.04;44.24;98158.78;4484326;32;32918;-73
2022/04/07 10:00:38;;;;;;;11.55;7.53;;;;;;;16.65;43.75;98141.91;4485033;32;34613;-73
2022/04/07 10:03:08;;;;;;;14.75;7.53;;;;;;;16.82;41.93;98157.34;4471784;32;33452;-73
2022/04/07 10:05:37;;;;;;;10.48;5.97;;;;;;;17.33;40.86;98150.28;4485384;32;33850;-73
2022/04/07 10:08:06;;;;;;;11.05;7.20;;;;;;;17.90;40.36;98150.56;4471492;32;35199;-75
2022/04/07 10:10:35;;;;;;;12.70;7.15;;;;;;;18.51;39.98;98150.66;4485474;32;33848;-72
2022/04/07 10:13:02;;;;;;;13.05;6.32;;;;;;;18.68;39.35;98148.22;4485126;32;34109;-73
2022/04/07 10:15:30;;;;;;;11.50;6.45;;;;;;;18.64;38.17;98147.19;4471137;32;33312;-75
2022/04/07 10:18:04;;;;;;;12.48;6.32;;;;;;;17.36;39.47;98141.37;4471159;32;34243;-76
2022/04/07 10:20:41;;;;;;;12.25;5.15;;;;;;;17.19;39.58;98151.22;4483216;31;32684;-74
2022/04/07 10:23:21;;;;;;;10.90;5.90;;;;;;;17.68;39.37;98138.03;4473729;31;31950;-74
2022/04/07 10:25:49;;;;;;;10.45;5.40;;;;;;;18.37;39.31;98133.87;4499556;31;33834;-75
2022/04/07 10:28:21;;;;;;;10.38;5.22;;;;;;;18.02;38.29;98128.78;4473654;31;32927;-75
2022/04/07 10:30:53;;;;;;;9.23;4.47;;;;;;;17.96;38.32;98122.47;4486996;31;33998;-76
2022/04/07 10:33:30;;;;;;;10.65;4.55;;;;;;;18.62;38.68;98118.84;4473423;31;32872;-75
2022/04/07 10:35:58;;;;;;;9.07;4.40;;;;;;;18.22;36.71;98119.37;4486540;31;34458;-75
2022/04/07 10:38:37;;;;;;;16.15;9.70;;;;;;;18.60;36.84;98110.00;4486573;31;34574;-75
2022/04/07 10:41:04;;;;;;;8.77;4.50;;;;;;;18.90;35.86;98113.44;4486643;31;33894;-75
2022/04/07 10:43:38;;;;;;;7.80;3.83;;;;;;;18.41;35.92;98115.50;4473994;31;34063;-75
2022/04/07 10:46:16;;;;;;;8.18;3.60;;;;;;;18.33;35.38;98115.34;4474001;31;32936;-75
2022/04/07 10:49:04;;;;;;;7.53;3.65;;;;;;;18.95;36.71;98105.00;4486390;31;34645;-75
2022/04/07 10:51:41;;;;;;;6.70;3.95;;;;;;;18.83;35.81;98101.88;4486610;31;34854;-76
2022/04/07 10:54:12;;;;;;;6.93;4.25;;;;;;;19.53;36.69;98083.16;4486006;31;31851;-76
2022/04/07 10:56:49;;;;;;;11.85;7.75;;;;;;;19.79;33.74;98083.50;4486664;31;33794;-76
2022/04/07 10:59:18;;;;;;;9.45;5.90;;;;;;;20.33;31.96;98085.44;4474789;31;34758;-76
2022/04/07 11:01:52;;;;;;;8.48;5.00;;;;;;;19.73;33.07;98087.53;4502692;31;33945;-74
2022/04/07 11:04:24;;;;;;;20.67;12.82;;;;;;;20.39;32.75;98077.81;4488633;31;33147;-75
2022/04/07 11:07:16;;;;;;;9.82;4.03;;;;;;;20.27;33.17;98074.72;4502819;31;33486;-75
2022/04/07 11:09:55;;;;;;;6.90;3.65;;;;;;;20.27;31.98;98077.50;4488356;31;34384;-75
2022/04/07 11:12:37;;;;;;;6.47;3.72;;;;;;;20.41;34.25;98081.13;4475350;31;34031;-75
2022/04/07 11:15:05;;;;;;;8.13;3.87;;;;;;;20.86;33.98;98075.63;4462690;31;31797;-76
2022/04/07 11:17:37;;;;;;;7.75;3.47;;;;;;;21.10;30.66;98076.16;4502469;31;33475;-76
2022/04/07 11:20:25;;;;;;;7.28;3.40;;;;;;;21.11;32.00;98071.38;4479282;31;34578;-75
2022/04/07 11:22:55;;;;;;;20.30;14.20;;;;;;;21.32;30.05;98067.81;4488425;31;34993;-75
2022/04/07 11:25:27;;;;;;;11.95;7.72;;;;;;;21.50;30.40;98065.09;4487175;31;34002;-75
2022/04/07 11:28:13;;;;;;;9.70;5.32;;;;;;;21.66;29.85;98067.16;4486460;32;33688;-75
2022/04/07 11:31:04;;;;;;;6.10;3.65;;;;;;;21.33;30.95;98077.00;4459310;32;35838;-75
2022/04/07 11:33:40;;;;;;;7.00;3.40;;;;;;;21.71;29.56;98080.16;4472598;32;34128;-75
2022/04/07 11:36:08;;;;;;;;;;;;;;;21.41;29.78;98078.19;4486454;32;33193;-75